Nanning, China
Current Conditions -  °F | °C
As of 7:00 PM on Saturday 20 Dec 2014 (Local Time) from ZGNN Reporting Station
Clear Clear  
Wind Chill: 59°   Ceiling: Unl
Heat Index: 59°   Visibility: 4mi
Dew Point: 46°   Wind: 2mph
Humidity: 63%   Direction: NA
Pressure: 30.03"   Gusts: NA
Location:  22.82°N, 108.32°E
Report Text: ZGNN 201100Z VRB01MPS 6000 NSC 15/08 Q1017 NOSIG
Loading
Personal Weather Stations






























Interactive Weather Map New forecast layout! Learn more

10-Day Weather Forecast

Advertisements
Track Severe Weather on mobile